Time;durP1;ratioP1;P1;durP2;ratioP2;P2;SDS_P1;SDS_P2;PMS_P1;PMS_P2;Temp;Humidity;BMP_temperature;BMP_pressure;BME280_temperature;BME280_humidity;BME280_pressure;Samples;Min_cycle;Max_cycle;Signal;HPM_P1;HPM_P2
2022/11/12 00:01:31;;;;;;;11.40;8.87;;;9.40;99.90;;;;;;5005803;28;20209;-32
2022/11/12 00:03:58;;;;;;;10.70;9.20;;;9.40;99.90;;;;;;5005653;28;20263;-31
2022/11/12 00:06:25;;;;;;;12.13;9.00;;;9.40;99.90;;;;;;5006242;28;20665;-32
2022/11/12 00:08:52;;;;;;;12.97;8.63;;;9.40;99.90;;;;;;5006927;28;20577;-32
2022/11/12 00:11:19;;;;;;;11.97;9.17;;;9.40;99.90;;;;;;5007423;28;20388;-31
2022/11/12 00:13:46;;;;;;;12.43;9.30;;;9.40;99.90;;;;;;5007098;28;20447;-31
2022/11/12 00:16:18;;;;;;;12.77;9.00;;;9.30;99.90;;;;;;5020177;28;20206;-31
2022/11/12 00:18:48;;;;;;;13.73;9.93;;;9.30;99.90;;;;;;5007536;28;20206;-32
2022/11/12 00:21:15;;;;;;;13.20;10.37;;;9.30;99.90;;;;;;5006331;28;20586;-31
2022/11/12 00:23:52;;;;;;;12.40;9.57;;;9.30;99.90;;;;;;5006325;28;20680;-31
2022/11/12 00:26:22;;;;;;;13.10;9.37;;;9.30;99.90;;;;;;5005021;28;20225;-32
2022/11/12 00:28:49;;;;;;;13.57;9.87;;;9.30;99.90;;;;;;5006268;28;20209;-32
2022/11/12 00:31:19;;;;;;;15.83;9.40;;;9.30;99.90;;;;;;5005887;28;20670;-31
2022/11/12 00:33:48;;;;;;;12.90;9.33;;;9.30;99.90;;;;;;4997492;28;20194;-31
2022/11/12 00:36:15;;;;;;;11.53;9.23;;;9.30;99.90;;;;;;4987008;28;20209;-31
2022/11/12 00:38:44;;;;;;;10.20;9.03;;;9.30;99.90;;;;;;4986903;28;20571;-32
2022/11/12 00:41:11;;;;;;;11.43;9.07;;;9.20;99.90;;;;;;5001238;28;20589;-30
2022/11/12 00:43:39;;;;;;;14.23;10.03;;;9.20;99.90;;;;;;4987103;28;20205;-31
2022/11/12 00:46:09;;;;;;;13.83;9.50;;;9.20;99.90;;;;;;4987296;28;20206;-31
2022/11/12 00:48:36;;;;;;;14.43;10.23;;;9.10;99.90;;;;;;4987344;28;20725;-31
2022/11/12 00:51:05;;;;;;;16.40;10.27;;;9.10;99.90;;;;;;5003167;28;20233;-31
2022/11/12 00:53:33;;;;;;;16.57;11.27;;;9.10;99.90;;;;;;5006252;28;20590;-31
2022/11/12 00:56:04;;;;;;;16.30;10.80;;;9.00;99.90;;;;;;5006746;28;20204;-31
2022/11/12 00:58:35;;;;;;;13.97;9.63;;;9.00;99.90;;;;;;5005263;28;20201;-31
2022/11/12 01:01:14;;;;;;;14.40;9.53;;;9.00;99.90;;;;;;5006627;28;20193;-31
2022/11/12 01:03:45;;;;;;;14.13;10.43;;;9.00;99.90;;;;;;5006421;28;20201;-31
2022/11/12 01:06:15;;;;;;;13.30;9.67;;;9.00;99.90;;;;;;5005059;28;20225;-31
2022/11/12 01:08:42;;;;;;;13.70;10.03;;;8.90;99.90;;;;;;5005851;28;20300;-31
2022/11/12 01:11:24;;;;;;;14.30;9.87;;;8.90;99.90;;;;;;5006684;28;20284;-31
2022/11/12 01:13:56;;;;;;;14.50;10.00;;;8.90;99.90;;;;;;5003059;28;20205;-31
2022/11/12 01:16:25;;;;;;;13.23;9.40;;;8.90;99.90;;;;;;5005480;28;20715;-31
2022/11/12 01:18:59;;;;;;;14.70;9.80;;;8.80;99.90;;;;;;5005937;28;20202;-31
2022/11/12 01:21:29;;;;;;;12.47;9.30;;;8.80;99.90;;;;;;5017095;28;20654;-31
2022/11/12 01:23:58;;;;;;;11.63;9.33;;;8.80;99.90;;;;;;5003346;28;20240;-31
2022/11/12 01:26:30;;;;;;;12.03;9.37;;;8.70;99.90;;;;;;5005583;28;20214;-32
2022/11/12 01:28:57;;;;;;;12.27;9.53;;;8.70;99.90;;;;;;4999349;28;20212;-31
2022/11/12 01:31:33;;;;;;;12.37;8.90;;;8.70;99.90;;;;;;5014731;28;20257;-31
2022/11/12 01:34:03;;;;;;;12.80;9.27;;;8.70;99.90;;;;;;5004267;28;20494;-31
2022/11/12 01:36:36;;;;;;;10.70;9.00;;;8.70;99.90;;;;;;5005168;28;20208;-31
2022/11/12 01:39:05;;;;;;;12.47;9.17;;;8.70;99.90;;;;;;5005021;28;20582;-32
2022/11/12 01:41:34;;;;;;;13.27;9.60;;;8.70;99.90;;;;;;4997341;28;20221;-32
2022/11/12 01:44:08;;;;;;;11.27;8.67;;;8.60;99.90;;;;;;5005307;28;20200;-32
2022/11/12 01:47:01;;;;;;;11.33;8.90;;;8.60;99.90;;;;;;5013818;28;20208;-32
2022/11/12 01:49:45;;;;;;;13.27;8.83;;;8.60;99.90;;;;;;5039944;28;20239;-31
2022/11/12 01:52:33;;;;;;;10.77;8.67;;;8.60;99.90;;;;;;5004671;28;20581;-31
2022/11/12 01:55:08;;;;;;;12.77;9.10;;;8.60;99.90;;;;;;5005648;28;20206;-32
2022/11/12 01:57:44;;;;;;;10.03;8.27;;;8.60;99.90;;;;;;5004579;28;20231;-32
2022/11/12 02:00:14;;;;;;;12.10;8.87;;;8.60;99.90;;;;;;5003000;28;20695;-31
2022/11/12 02:02:46;;;;;;;8.70;7.80;;;8.60;99.90;;;;;;4992044;28;20935;-31
2022/11/12 02:05:18;;;;;;;10.67;8.37;;;8.60;99.90;;;;;;5018742;28;20232;-32
2022/11/12 02:07:46;;;;;;;11.33;8.60;;;8.60;99.90;;;;;;5017497;28;20213;-31
2022/11/12 02:10:14;;;;;;;10.40;8.00;;;8.50;99.90;;;;;;4991533;28;20217;-31
2022/11/12 02:15:34;;;;;;;9.27;7.87;;;8.50;99.90;;;;;;5002869;28;20220;-30
2022/11/12 02:18:04;;;;;;;9.60;8.07;;;8.50;99.90;;;;;;5004503;28;20617;-31
2022/11/12 02:20:36;;;;;;;10.00;8.00;;;8.50;99.90;;;;;;5004862;28;20225;-31
2022/11/12 02:23:06;;;;;;;10.93;8.40;;;8.50;99.90;;;;;;4994485;28;20218;-31
2022/11/12 02:25:34;;;;;;;9.73;7.97;;;8.50;99.90;;;;;;4997391;28;20205;-30
2022/11/12 02:28:06;;;;;;;9.50;7.83;;;8.50;99.90;;;;;;5015281;28;20213;-31
2022/11/12 02:30:35;;;;;;;10.03;7.57;;;8.50;99.90;;;;;;5005780;28;20229;-31
2022/11/12 02:33:02;;;;;;;9.17;7.67;;;8.50;99.90;;;;;;5003659;28;20214;-31
2022/11/12 02:35:32;;;;;;;9.40;7.73;;;8.50;99.90;;;;;;5003577;28;20201;-31
2022/11/12 02:38:00;;;;;;;9.23;7.33;;;8.50;99.90;;;;;;5002719;28;20205;-31
2022/11/12 02:40:27;;;;;;;9.83;7.23;;;8.50;99.90;;;;;;5005410;28;20205;-31
2022/11/12 02:42:54;;;;;;;9.10;7.40;;;8.50;99.90;;;;;;5004309;28;20228;-31
2022/11/12 02:45:24;;;;;;;10.83;7.23;;;8.50;99.90;;;;;;5014544;28;20208;-31
2022/11/12 02:47:53;;;;;;;9.53;7.23;;;8.50;99.90;;;;;;5004410;28;20233;-31
2022/11/12 02:50:20;;;;;;;10.23;7.90;;;8.50;99.90;;;;;;5001859;28;20230;-31
2022/11/12 02:52:47;;;;;;;8.77;6.73;;;8.50;99.90;;;;;;5003774;28;20214;-31
2022/11/12 02:55:15;;;;;;;8.67;7.13;;;8.50;99.90;;;;;;5002468;28;20590;-31
2022/11/12 02:57:42;;;;;;;8.00;6.57;;;8.50;99.90;;;;;;5004809;28;20213;-32
2022/11/12 03:00:12;;;;;;;10.03;7.20;;;8.40;99.90;;;;;;5004597;28;20669;-31
2022/11/12 03:02:41;;;;;;;9.93;7.07;;;8.50;99.90;;;;;;5015531;28;20589;-31
2022/11/12 03:05:12;;;;;;;9.53;6.87;;;8.50;99.90;;;;;;5006779;28;20217;-31
2022/11/12 03:07:39;;;;;;;10.27;7.17;;;8.40;99.90;;;;;;5001556;28;20733;-31
2022/11/12 03:10:07;;;;;;;9.67;7.30;;;8.40;99.90;;;;;;4988458;28;20226;-31
2022/11/12 03:12:38;;;;;;;9.30;6.83;;;8.50;99.90;;;;;;5006411;28;20201;-31
2022/11/12 03:15:06;;;;;;;9.70;7.33;;;8.40;99.90;;;;;;5008121;28;20198;-31
2022/11/12 03:17:35;;;;;;;9.20;7.10;;;8.40;99.90;;;;;;4991216;28;20214;-31
2022/11/12 03:20:02;;;;;;;11.97;7.43;;;8.40;99.90;;;;;;5003964;28;20218;-31
2022/11/12 03:22:32;;;;;;;8.97;7.07;;;8.40;99.90;;;;;;5017570;28;20207;-32
2022/11/12 03:24:59;;;;;;;10.43;7.00;;;8.40;99.90;;;;;;4989528;28;20584;-32
2022/11/12 03:27:26;;;;;;;8.17;6.53;;;8.30;99.90;;;;;;5001314;28;20219;-31
2022/11/12 03:29:53;;;;;;;7.93;7.07;;;8.30;99.90;;;;;;5007099;28;20703;-32
2022/11/12 03:32:20;;;;;;;7.07;6.37;;;8.30;99.90;;;;;;5005952;28;20659;-35
2022/11/12 03:34:47;;;;;;;8.83;6.90;;;8.30;99.90;;;;;;5006106;28;20221;-32
2022/11/12 03:37:23;;;;;;;9.30;6.83;;;8.30;99.90;;;;;;5007650;28;20298;-32
2022/11/12 03:39:50;;;;;;;9.90;7.03;;;8.20;99.90;;;;;;4994378;28;20202;-32
2022/11/12 03:42:21;;;;;;;9.10;7.03;;;8.30;99.90;;;;;;5007440;28;20198;-32
2022/11/12 03:44:51;;;;;;;10.07;7.27;;;8.20;99.90;;;;;;5007810;28;20213;-32
2022/11/12 03:47:18;;;;;;;9.70;7.00;;;8.20;99.90;;;;;;5007208;28;20221;-32
2022/11/12 03:49:49;;;;;;;8.73;7.07;;;8.20;99.90;;;;;;5007435;28;20293;-31
2022/11/12 03:52:19;;;;;;;8.50;7.10;;;8.20;99.90;;;;;;5004423;28;20739;-30
2022/11/12 03:54:46;;;;;;;9.33;7.00;;;8.10;99.90;;;;;;5006466;28;20676;-30
2022/11/12 03:57:15;;;;;;;9.40;7.00;;;8.10;99.90;;;;;;4997505;28;20645;-30
2022/11/12 03:59:44;;;;;;;8.30;7.40;;;8.10;99.90;;;;;;4987863;28;20205;-30
2022/11/12 04:02:13;;;;;;;10.97;7.63;;;8.10;99.90;;;;;;5009549;28;20218;-30
2022/11/12 04:10:16;;;;;;;8.83;7.17;;;8.00;99.90;;;;;;5004567;28;20222;-31
2022/11/12 04:15:29;;;;;;;13.73;7.50;;;7.90;99.90;;;;;;5006589;28;20205;-30
2022/11/12 04:23:33;;;;;;;9.30;7.77;;;8.00;99.90;;;;;;5004799;28;20573;-31
2022/11/12 04:31:37;;;;;;;10.27;8.03;;;8.00;99.90;;;;;;5004400;28;20225;-30
2022/11/12 04:36:55;;;;;;;11.23;7.73;;;8.00;99.90;;;;;;5006020;28;20201;-30
2022/11/12 04:39:26;;;;;;;9.30;7.50;;;8.00;99.90;;;;;;5006352;28;20304;-30
2022/11/12 04:45:01;;;;;;;10.40;8.17;;;8.00;99.90;;;;;;5005952;28;20217;-31
2022/11/12 04:47:36;;;;;;;11.40;7.43;;;7.90;99.90;;;;;;5020225;28;20251;-30
2022/11/12 04:50:12;;;;;;;9.40;7.47;;;8.00;99.90;;;;;;5001630;28;20212;-31
2022/11/12 04:52:39;;;;;;;9.10;7.60;;;8.00;99.90;;;;;;5000521;28;20219;-30
2022/11/12 04:55:07;;;;;;;11.00;8.10;;;7.90;99.90;;;;;;5006217;28;20252;-31
2022/11/12 04:57:36;;;;;;;9.83;8.00;;;8.00;99.90;;;;;;5005483;28;20205;-31
2022/11/12 05:00:05;;;;;;;11.43;7.57;;;8.00;99.90;;;;;;5006336;28;20207;-31
2022/11/12 05:02:32;;;;;;;9.90;7.60;;;8.00;99.90;;;;;;5005036;28;20779;-31
2022/11/12 05:04:59;;;;;;;8.00;7.20;;;8.00;99.90;;;;;;4998905;28;20206;-31
2022/11/12 05:07:26;;;;;;;8.70;7.17;;;8.00;99.90;;;;;;5005274;28;20209;-31
2022/11/12 05:09:56;;;;;;;10.17;7.13;;;8.00;99.90;;;;;;5006465;28;20197;-30
2022/11/12 05:12:23;;;;;;;10.57;7.43;;;8.00;99.90;;;;;;5005485;28;20248;-31
2022/11/12 05:14:50;;;;;;;9.23;7.57;;;8.10;99.90;;;;;;5003725;28;20515;-30
2022/11/12 05:17:20;;;;;;;10.63;7.80;;;8.00;99.90;;;;;;5005910;28;20201;-30
2022/11/12 05:19:47;;;;;;;10.07;7.40;;;8.00;99.90;;;;;;5005784;28;20205;-30
2022/11/12 05:22:14;;;;;;;10.10;7.73;;;8.00;99.90;;;;;;5004282;28;20213;-30
2022/11/12 05:25:02;;;;;;;9.37;7.47;;;8.00;99.90;;;;;;5004046;28;20229;-30
2022/11/12 05:27:29;;;;;;;11.37;7.47;;;8.00;99.90;;;;;;5004078;28;20210;-30
2022/11/12 05:29:56;;;;;;;8.93;7.20;;;8.00;99.90;;;;;;5005647;28;20604;-30
2022/11/12 05:32:23;;;;;;;11.80;8.23;;;8.00;99.90;;;;;;5007092;28;20225;-30
2022/11/12 05:34:54;;;;;;;11.10;7.67;;;7.90;99.90;;;;;;5025898;28;20200;-31
2022/11/12 05:37:24;;;;;;;8.33;6.80;;;7.90;99.90;;;;;;5005945;28;20574;-30
2022/11/12 05:39:53;;;;;;;10.73;7.83;;;7.90;99.90;;;;;;5005052;28;20212;-31
2022/11/12 05:42:23;;;;;;;10.90;7.33;;;7.90;99.90;;;;;;5005906;28;20206;-31
2022/11/12 05:44:50;;;;;;;10.20;7.67;;;7.90;99.90;;;;;;5002983;28;20838;-31
2022/11/12 05:47:17;;;;;;;9.37;7.10;;;7.90;99.90;;;;;;5005556;28;20248;-31
2022/11/12 05:49:46;;;;;;;10.37;7.60;;;7.90;99.90;;;;;;5005913;28;20197;-30
2022/11/12 05:52:13;;;;;;;9.43;7.43;;;7.90;99.90;;;;;;5002166;28;20226;-31
2022/11/12 05:54:45;;;;;;;10.07;7.60;;;7.90;99.90;;;;;;5005633;28;20212;-31
2022/11/12 05:57:12;;;;;;;9.50;7.37;;;7.90;99.90;;;;;;5004775;28;20217;-30
2022/11/12 05:59:39;;;;;;;9.30;7.30;;;7.90;99.90;;;;;;4995153;28;20240;-30
2022/11/12 06:02:10;;;;;;;10.30;7.73;;;7.90;99.90;;;;;;4999165;28;20279;-31
2022/11/12 06:04:39;;;;;;;9.20;7.60;;;7.90;99.90;;;;;;4993852;28;20229;-30
2022/11/12 06:07:06;;;;;;;10.63;7.47;;;7.90;99.90;;;;;;4999433;28;20205;-31
2022/11/12 06:09:36;;;;;;;9.40;7.57;;;7.90;99.90;;;;;;5000423;28;20420;-30
2022/11/12 06:12:05;;;;;;;10.33;8.30;;;7.90;99.90;;;;;;4999599;28;20240;-30
2022/11/12 06:14:32;;;;;;;11.03;7.00;;;7.90;99.90;;;;;;5001658;28;20283;-31
2022/11/12 06:16:59;;;;;;;10.70;7.23;;;7.90;99.90;;;;;;5000032;28;20233;-31
2022/11/12 06:19:29;;;;;;;8.87;7.33;;;7.90;99.90;;;;;;5002746;28;20205;-31
2022/11/12 06:21:58;;;;;;;11.30;8.20;;;7.90;99.90;;;;;;5003960;28;20224;-30
2022/11/12 06:24:27;;;;;;;9.73;7.63;;;7.90;99.90;;;;;;5004705;28;20433;-31
2022/11/12 06:27:03;;;;;;;11.00;7.77;;;7.90;99.90;;;;;;5004971;28;20216;-31
2022/11/12 06:29:33;;;;;;;8.40;7.43;;;7.90;99.90;;;;;;5003933;28;20206;-30
2022/11/12 06:32:03;;;;;;;9.13;7.70;;;7.90;99.90;;;;;;5004784;28;20236;-30
2022/11/12 06:34:30;;;;;;;10.97;8.17;;;7.90;99.90;;;;;;4994490;28;20214;-30
2022/11/12 06:36:59;;;;;;;8.67;7.50;;;7.90;99.90;;;;;;5001772;28;20407;-30
2022/11/12 06:39:28;;;;;;;11.33;7.73;;;7.90;99.90;;;;;;5007455;28;20205;-31
2022/11/12 06:42:00;;;;;;;10.63;8.23;;;7.90;99.90;;;;;;5003052;28;20206;-30
2022/11/12 06:44:30;;;;;;;9.93;8.03;;;7.90;99.90;;;;;;5008009;28;20219;-30
2022/11/12 06:46:57;;;;;;;9.80;7.33;;;7.90;99.90;;;;;;5007037;28;20261;-29
2022/11/12 06:49:26;;;;;;;10.60;7.87;;;7.90;99.90;;;;;;5000326;28;20868;-30
2022/11/12 06:51:53;;;;;;;11.07;8.40;;;7.90;99.90;;;;;;5003152;28;20224;-30
2022/11/12 06:54:23;;;;;;;11.20;8.17;;;7.90;99.90;;;;;;4997137;28;20209;-30
2022/11/12 06:56:54;;;;;;;9.97;7.57;;;7.90;99.90;;;;;;5011107;28;20261;-31
2022/11/12 06:59:21;;;;;;;11.00;7.70;;;7.90;99.90;;;;;;5026194;28;20330;-30
2022/11/12 07:01:53;;;;;;;8.63;7.33;;;7.90;99.90;;;;;;5028329;28;20197;-31
2022/11/12 07:04:23;;;;;;;11.27;7.63;;;7.90;99.90;;;;;;5014436;28;20601;-30
2022/11/12 07:06:50;;;;;;;8.87;7.07;;;7.90;99.90;;;;;;5021077;28;20215;-31
2022/11/12 07:09:19;;;;;;;12.00;8.13;;;7.90;99.90;;;;;;5005428;28;20252;-31
2022/11/12 07:11:51;;;;;;;11.87;7.77;;;7.90;99.90;;;;;;5013900;28;20229;-31
2022/11/12 07:14:18;;;;;;;13.30;8.23;;;7.90;99.90;;;;;;5024584;28;20215;-30
2022/11/12 07:16:45;;;;;;;14.33;8.60;;;7.90;99.90;;;;;;5012630;28;20325;-31
2022/11/12 07:19:14;;;;;;;13.87;8.27;;;7.90;99.90;;;;;;5006926;28;20201;-30
2022/11/12 07:21:44;;;;;;;14.40;8.30;;;7.90;99.90;;;;;;5001312;28;20605;-30
2022/11/12 07:24:11;;;;;;;11.90;8.63;;;7.90;99.90;;;;;;5004815;28;20319;-31
2022/11/12 07:26:41;;;;;;;12.87;8.43;;;7.90;99.90;;;;;;5034089;28;20212;-30
2022/11/12 07:29:13;;;;;;;11.03;8.33;;;7.90;99.90;;;;;;5021546;28;20266;-31
2022/11/12 07:32:01;;;;;;;12.77;9.37;;;7.90;99.90;;;;;;5010383;28;20645;-31
2022/11/12 07:34:30;;;;;;;12.27;8.53;;;7.90;99.90;;;;;;5001136;28;20241;-31
2022/11/12 07:36:59;;;;;;;14.23;8.97;;;7.90;99.90;;;;;;5006417;28;20249;-31
2022/11/12 07:39:29;;;;;;;11.63;8.90;;;7.90;99.90;;;;;;4993799;28;20213;-31
2022/11/12 07:41:56;;;;;;;14.93;9.23;;;8.00;99.90;;;;;;5001738;28;20214;-30
2022/11/12 07:44:23;;;;;;;12.83;9.40;;;7.90;99.90;;;;;;5006601;28;20665;-31
2022/11/12 07:46:50;;;;;;;11.27;8.53;;;7.90;99.90;;;;;;5004568;28;20244;-31
2022/11/12 07:49:19;;;;;;;11.97;9.00;;;8.00;99.90;;;;;;5014054;28;20715;-31
2022/11/12 07:51:46;;;;;;;13.37;9.00;;;8.00;99.90;;;;;;5020654;28;20224;-31
2022/11/12 07:54:14;;;;;;;11.77;9.00;;;8.00;99.90;;;;;;5007897;28;20205;-30
2022/11/12 07:56:43;;;;;;;14.90;8.70;;;8.00;99.90;;;;;;5005631;28;20235;-30
2022/11/12 07:59:12;;;;;;;10.77;8.40;;;8.00;99.90;;;;;;5021402;28;20201;-33
2022/11/12 08:01:42;;;;;;;11.17;8.17;;;8.00;99.90;;;;;;5027427;28;20212;-33
2022/11/12 08:04:10;;;;;;;14.97;8.17;;;8.00;99.90;;;;;;5006442;28;20229;-31
2022/11/12 08:06:37;;;;;;;11.13;8.00;;;8.00;99.90;;;;;;5016183;28;20804;-30
2022/11/12 08:09:07;;;;;;;9.60;7.27;;;8.00;99.90;;;;;;5002354;28;20197;-30
2022/11/12 08:11:37;;;;;;;10.13;7.43;;;8.10;99.90;;;;;;5007954;28;20243;-30
2022/11/12 08:14:04;;;;;;;10.30;7.43;;;8.10;99.90;;;;;;5018179;28;20209;-30
2022/11/12 08:16:33;;;;;;;10.73;7.47;;;8.10;99.90;;;;;;5021199;28;20578;-32
2022/11/12 08:19:00;;;;;;;10.77;7.87;;;8.10;99.90;;;;;;5010247;28;20209;-32
2022/11/12 08:21:27;;;;;;;9.23;7.60;;;8.10;99.90;;;;;;5006228;28;20202;-32
2022/11/12 08:23:59;;;;;;;12.77;8.40;;;8.20;99.90;;;;;;5024317;28;20397;-30
2022/11/12 08:26:31;;;;;;;10.87;7.90;;;8.20;99.90;;;;;;5010392;28;20213;-30
2022/11/12 08:29:00;;;;;;;11.23;8.20;;;8.20;99.90;;;;;;4997600;28;20206;-30
2022/11/12 08:31:34;;;;;;;14.63;8.80;;;8.30;99.90;;;;;;5003785;28;20712;-30
2022/11/12 08:34:11;;;;;;;10.33;8.13;;;8.30;99.90;;;;;;5004192;28;20210;-30
2022/11/12 08:36:41;;;;;;;11.20;8.47;;;8.40;99.90;;;;;;5007589;28;20616;-30
2022/11/12 08:39:08;;;;;;;10.40;7.67;;;8.40;99.90;;;;;;5012586;28;20214;-30
2022/11/12 08:41:35;;;;;;;11.17;8.47;;;8.50;99.90;;;;;;5006904;28;20214;-30
2022/11/12 08:44:03;;;;;;;11.27;7.97;;;8.50;99.90;;;;;;5007414;28;20308;-30
2022/11/12 08:46:36;;;;;;;9.00;7.73;;;8.50;99.90;;;;;;4999783;28;20203;-30
2022/11/12 08:49:06;;;;;;;9.97;8.13;;;8.60;99.90;;;;;;5022265;28;20240;-30
2022/11/12 08:51:33;;;;;;;13.30;8.63;;;8.60;99.90;;;;;;5007899;28;20233;-30
2022/11/12 08:54:02;;;;;;;15.57;9.30;;;8.60;99.90;;;;;;5016984;28;20603;-30
2022/11/12 08:56:29;;;;;;;11.10;9.17;;;8.70;99.90;;;;;;5010658;28;20255;-30
2022/11/12 08:58:56;;;;;;;10.80;8.87;;;8.70;99.90;;;;;;5014454;28;20197;-31
2022/11/12 09:01:29;;;;;;;14.90;9.73;;;8.70;99.90;;;;;;5014440;28;20241;-30
2022/11/12 09:03:57;;;;;;;14.27;9.40;;;8.80;99.90;;;;;;5023323;28;20252;-30
2022/11/12 09:06:24;;;;;;;10.77;9.63;;;8.80;99.90;;;;;;5008841;28;20236;-30
2022/11/12 09:08:51;;;;;;;12.87;10.00;;;8.80;99.90;;;;;;5021211;28;20202;-30
2022/11/12 09:11:21;;;;;;;12.73;10.00;;;8.90;99.90;;;;;;5013007;28;20287;-30
2022/11/12 09:13:54;;;;;;;14.17;10.20;;;8.90;99.90;;;;;;5021926;28;20232;-29
2022/11/12 09:16:23;;;;;;;13.97;9.97;;;9.00;99.90;;;;;;4990107;28;20201;-30
2022/11/12 09:18:56;;;;;;;13.33;9.90;;;9.00;99.90;;;;;;5024323;28;20209;-29
2022/11/12 09:21:23;;;;;;;11.53;9.97;;;9.10;99.90;;;;;;5019917;28;20718;-30
2022/11/12 09:23:54;;;;;;;10.67;8.73;;;9.10;99.90;;;;;;5010975;28;20222;-30
2022/11/12 09:26:23;;;;;;;13.27;10.17;;;9.20;99.90;;;;;;5010011;28;20262;-30
2022/11/12 09:28:52;;;;;;;11.73;9.73;;;9.30;99.90;;;;;;5025738;28;20632;-30
2022/11/12 09:31:19;;;;;;;13.90;11.00;;;9.30;99.90;;;;;;5005312;28;20595;-30
2022/11/12 09:33:47;;;;;;;14.70;10.27;;;9.40;99.90;;;;;;5009732;28;20201;-31
2022/11/12 09:36:21;;;;;;;15.63;9.57;;;9.50;99.90;;;;;;5012145;28;20532;-31
2022/11/12 09:38:48;;;;;;;13.70;9.30;;;9.50;99.90;;;;;;5023766;28;20199;-33
2022/11/12 09:41:38;;;;;;;11.13;8.80;;;9.60;99.90;;;;;;5011583;28;20247;-33
2022/11/12 09:44:17;;;;;;;10.07;8.17;;;9.70;99.90;;;;;;5002399;28;20212;-30
2022/11/12 09:46:51;;;;;;;10.87;8.90;;;9.70;99.90;;;;;;4999994;28;20263;-31
2022/11/12 09:49:31;;;;;;;13.33;9.50;;;9.80;99.90;;;;;;5004550;28;20241;-31
2022/11/12 09:52:21;;;;;;;10.93;8.60;;;9.80;99.90;;;;;;5012239;28;20229;-30
2022/11/12 09:55:01;;;;;;;18.17;10.03;;;10.00;99.90;;;;;;5005685;28;20203;-30
2022/11/12 09:57:28;;;;;;;13.97;10.00;;;10.00;99.90;;;;;;5024671;28;20240;-31
2022/11/12 09:59:57;;;;;;;9.33;7.77;;;10.00;99.90;;;;;;5024017;28;20209;-30
2022/11/12 10:02:35;;;;;;;10.57;8.17;;;10.10;99.90;;;;;;5016567;28;20244;-29
2022/11/12 10:05:13;;;;;;;10.37;8.40;;;10.20;99.90;;;;;;5012506;28;20698;-31
2022/11/12 10:08:25;;;;;;;10.23;7.60;;;10.30;99.90;;;;;;5007817;28;20308;-30
2022/11/12 10:11:18;;;;;;;10.27;7.93;;;10.40;99.90;;;;;;5019604;28;20268;-30
2022/11/12 10:14:12;;;;;;;10.87;8.30;;;10.40;99.90;;;;;;4996605;28;20375;-30
2022/11/12 10:17:02;;;;;;;12.87;8.07;;;10.50;99.90;;;;;;5009547;28;20221;-30
2022/11/12 10:19:32;;;;;;;12.47;8.03;;;10.60;99.90;;;;;;4999137;28;20456;-30
2022/11/12 10:22:13;;;;;;;9.83;7.00;;;10.70;99.90;;;;;;4989588;28;20595;-30
2022/11/12 10:24:41;;;;;;;10.23;7.00;;;10.80;99.90;;;;;;5008608;28;20223;-31
2022/11/12 10:27:26;;;;;;;8.03;6.30;;;10.90;99.90;;;;;;5009038;28;20219;-30
2022/11/12 10:30:01;;;;;;;7.43;5.80;;;11.00;99.90;;;;;;4991490;28;20641;-31
2022/11/12 10:32:28;;;;;;;6.70;5.50;;;11.10;99.90;;;;;;5005813;28;20221;-31
2022/11/12 10:34:58;;;;;;;7.43;6.00;;;11.20;99.90;;;;;;5007429;28;20245;-30
2022/11/12 10:37:34;;;;;;;7.17;5.87;;;11.30;99.90;;;;;;5006766;28;20598;-30
2022/11/12 10:40:22;;;;;;;7.37;5.60;;;11.40;99.90;;;;;;5007463;28;20212;-30
2022/11/12 10:43:16;;;;;;;6.67;5.97;;;11.50;99.90;;;;;;5001981;28;20344;-31
2022/11/12 10:45:47;;;;;;;8.10;6.07;;;11.50;99.90;;;;;;5016893;28;20201;-31
2022/11/12 10:48:34;;;;;;;7.63;6.00;;;11.60;99.90;;;;;;4998507;28;20287;-30
2022/11/12 10:51:28;;;;;;;6.80;5.87;;;11.70;99.90;;;;;;4989111;28;20249;-30
2022/11/12 10:53:55;;;;;;;7.77;6.27;;;11.80;99.90;;;;;;5001077;28;20678;-31
2022/11/12 10:56:32;;;;;;;8.33;5.90;;;11.90;99.90;;;;;;5019716;28;20654;-30
2022/11/12 10:59:10;;;;;;;7.77;6.13;;;11.90;99.90;;;;;;5028346;28;20193;-30
2022/11/12 11:01:43;;;;;;;7.93;6.03;;;12.00;99.90;;;;;;5026704;28;20778;-30
2022/11/12 11:04:36;;;;;;;6.90;5.70;;;12.10;99.90;;;;;;5015715;28;20627;-30
2022/11/12 11:07:19;;;;;;;6.47;5.50;;;12.20;99.90;;;;;;5015790;28;20292;-31
2022/11/12 11:09:59;;;;;;;7.00;5.80;;;12.30;99.90;;;;;;5021891;28;20214;-30
2022/11/12 11:12:29;;;;;;;6.07;5.47;;;12.40;99.90;;;;;;5009138;28;20586;-30
2022/11/12 11:15:13;;;;;;;7.97;5.93;;;12.50;99.90;;;;;;5016064;28;20205;-30
2022/11/12 11:17:40;;;;;;;8.90;5.47;;;12.60;99.90;;;;;;5012590;28;20275;-30
2022/11/12 11:20:21;;;;;;;6.20;5.07;;;12.60;99.90;;;;;;5000622;28;20221;-32
2022/11/12 11:22:56;;;;;;;5.73;5.20;;;12.70;99.90;;;;;;5014725;28;20413;-33
2022/11/12 11:25:26;;;;;;;5.77;4.97;;;12.80;99.90;;;;;;5006581;28;20275;-34
2022/11/12 11:28:14;;;;;;;6.70;4.90;;;12.90;99.90;;;;;;5024650;28;20197;-31
2022/11/12 11:30:57;;;;;;;6.43;4.40;;;13.00;99.90;;;;;;5008319;28;20689;-31
2022/11/12 11:34:01;;;;;;;5.10;4.57;;;13.10;99.90;;;;;;5000148;28;20295;-30
2022/11/12 11:36:38;;;;;;;5.17;4.53;;;13.20;99.90;;;;;;5013753;28;20203;-32
2022/11/12 11:39:29;;;;;;;4.20;3.80;;;13.20;99.90;;;;;;4991607;28;20297;-30
2022/11/12 11:42:06;;;;;;;5.53;4.00;;;13.30;99.90;;;;;;5006797;28;20307;-29
2022/11/12 11:45:08;;;;;;;4.50;3.83;;;13.40;99.90;;;;;;5002576;28;20244;-29
2022/11/12 11:47:59;;;;;;;4.63;3.20;;;13.50;99.90;;;;;;4988387;28;20243;-29
2022/11/12 11:50:55;;;;;;;3.50;3.20;;;13.60;99.90;;;;;;4990578;28;20407;-29
2022/11/12 11:53:31;;;;;;;4.37;2.43;;;13.70;99.90;;;;;;5006775;28;20230;-29
2022/11/12 11:55:58;;;;;;;4.90;2.77;;;13.80;99.90;;;;;;5019060;28;20702;-29
2022/11/12 11:58:41;;;;;;;3.20;2.90;;;13.90;99.90;;;;;;5009562;28;20247;-29
2022/11/12 12:01:23;;;;;;;4.37;3.10;;;13.90;99.90;;;;;;5018800;28;20204;-30
2022/11/12 12:04:09;;;;;;;3.50;2.80;;;14.10;99.90;;;;;;5013198;28;20251;-29
2022/11/12 12:06:55;;;;;;;4.33;2.80;;;14.10;99.90;;;;;;5002949;28;20204;-29
2022/11/12 12:09:44;;;;;;;3.50;2.77;;;14.20;99.90;;;;;;5010446;28;20212;-29
2022/11/12 12:12:34;;;;;;;3.40;3.10;;;14.30;99.90;;;;;;5002819;28;20681;-29
2022/11/12 12:15:28;;;;;;;9.50;3.60;;;14.40;99.90;;;;;;5017164;28;20193;-29
2022/11/12 12:18:00;;;;;;;12.47;3.90;;;14.50;99.90;;;;;;5011790;28;20205;-29
2022/11/12 12:21:25;;;;;;;5.83;3.47;;;14.60;99.90;;;;;;5015457;28;20842;-29
2022/11/12 12:24:07;;;;;;;5.13;2.90;;;14.70;99.90;;;;;;5007236;28;20287;-29
2022/11/12 12:27:01;;;;;;;6.13;2.83;;;14.80;99.90;;;;;;5012659;28;20659;-29
2022/11/12 12:29:40;;;;;;;3.30;2.80;;;14.80;99.90;;;;;;5010013;28;20575;-30
2022/11/12 12:32:16;;;;;;;9.80;3.67;;;14.90;99.90;;;;;;5006059;28;20213;-30
2022/11/12 12:35:13;;;;;;;4.30;3.00;;;15.00;99.90;;;;;;5013777;28;20659;-30
2022/11/12 12:38:15;;;;;;;6.17;3.23;;;15.10;99.90;;;;;;5001062;28;20210;-30
2022/11/12 12:40:50;;;;;;;3.30;2.90;;;15.10;99.90;;;;;;4998495;28;20550;-30
2022/11/12 12:43:23;;;;;;;3.40;2.80;;;15.20;99.90;;;;;;5016705;28;20212;-30
2022/11/12 12:45:56;;;;;;;4.33;3.33;;;15.30;99.90;;;;;;5005838;28;20744;-30
2022/11/12 12:48:28;;;;;;;5.40;2.83;;;15.30;99.90;;;;;;4999700;28;20265;-30
2022/11/12 12:50:57;;;;;;;4.73;3.00;;;15.40;99.90;;;;;;5007369;28;20205;-30
2022/11/12 12:53:28;;;;;;;5.27;3.03;;;15.40;99.90;;;;;;5024536;28;20523;-29
2022/11/12 12:55:57;;;;;;;4.07;3.23;;;15.50;99.90;;;;;;4999165;28;20298;-30
2022/11/12 12:58:29;;;;;;;3.90;2.87;;;15.50;99.90;;;;;;4986388;28;20233;-30
2022/11/12 13:01:15;;;;;;;3.07;2.70;;;15.60;99.90;;;;;;5003965;28;20206;-31
2022/11/12 13:03:45;;;;;;;3.77;2.90;;;15.60;99.90;;;;;;5017323;28;20233;-30
2022/11/12 13:06:26;;;;;;;2.97;2.60;;;15.70;99.90;;;;;;5019817;28;20223;-31
2022/11/12 13:09:04;;;;;;;3.63;2.70;;;15.70;99.90;;;;;;5023368;28;20602;-30
2022/11/12 13:14:37;;;;;;;4.27;2.80;;;15.80;99.90;;;;;;5002791;28;20228;-30
2022/11/12 13:17:09;;;;;;;2.73;2.53;;;15.80;99.90;;;;;;5020647;28;20666;-30
2022/11/12 13:19:43;;;;;;;2.87;2.40;;;15.90;99.90;;;;;;5025776;28;20719;-30
2022/11/12 13:22:19;;;;;;;2.93;2.40;;;15.90;99.90;;;;;;5020450;28;20203;-30
2022/11/12 13:25:07;;;;;;;2.27;1.90;;;16.00;99.90;;;;;;5010672;28;20218;-30
2022/11/12 13:28:07;;;;;;;2.93;2.23;;;16.00;99.90;;;;;;5010670;28;20197;-30
2022/11/12 13:30:34;;;;;;;2.70;2.50;;;16.10;99.90;;;;;;5019191;28;20557;-30
2022/11/12 13:33:20;;;;;;;2.73;2.40;;;16.10;99.90;;;;;;5018526;28;20228;-30
2022/11/12 13:35:49;;;;;;;2.67;1.90;;;16.10;99.90;;;;;;4998661;28;20229;-30
2022/11/12 13:38:16;;;;;;;2.90;2.27;;;16.20;99.90;;;;;;5002483;28;20200;-30
2022/11/12 13:41:15;;;;;;;9.80;3.03;;;16.20;99.90;;;;;;5005201;28;20210;-31
2022/11/12 13:43:46;;;;;;;9.47;2.57;;;16.30;99.90;;;;;;5027576;28;20205;-30
2022/11/12 13:46:28;;;;;;;4.23;2.70;;;16.40;99.90;;;;;;5008889;28;20559;-30
2022/11/12 13:49:02;;;;;;;5.93;2.60;;;16.40;99.90;;;;;;5019217;28;20738;-30